createdAt,value
2022-07-31T00:03:27.260Z,14.1
2022-07-31T00:08:27.307Z,14.1
2022-07-31T00:13:56.917Z,14
2022-07-31T00:23:43.844Z,13.8
2022-07-31T00:28:29.312Z,13.8
2022-07-31T00:33:27.737Z,13.7
2022-07-31T00:38:27.853Z,13.5
2022-07-31T00:43:30.862Z,13.5
2022-07-31T00:48:27.551Z,13.4
2022-07-31T00:53:27.278Z,13.4
2022-07-31T00:58:27.242Z,13.3
2022-07-31T01:03:27.297Z,13.3
2022-07-31T01:08:27.246Z,13.3
2022-07-31T01:13:27.383Z,13.1
2022-07-31T01:18:27.317Z,13.1
2022-07-31T01:23:27.407Z,13.1
2022-07-31T01:28:27.283Z,13.1
2022-07-31T01:33:27.280Z,13
2022-07-31T01:38:27.296Z,13.1
2022-07-31T01:43:27.262Z,13.1
2022-07-31T01:48:27.439Z,13
2022-07-31T01:53:27.251Z,13
2022-07-31T01:58:27.294Z,12.9
2022-07-31T02:03:43.108Z,13
2022-07-31T02:08:27.322Z,13
2022-07-31T02:13:27.309Z,12.9
2022-07-31T02:18:27.291Z,12.9
2022-07-31T02:23:27.540Z,12.9
2022-07-31T02:33:27.269Z,13.1
2022-07-31T02:38:27.280Z,13.1
2022-07-31T02:43:27.382Z,12.9
2022-07-31T02:48:27.346Z,12.9
2022-07-31T02:53:27.319Z,12.9
2022-07-31T02:58:27.269Z,12.9
2022-07-31T03:03:27.309Z,12.5
2022-07-31T03:08:27.375Z,12.2
2022-07-31T03:13:27.329Z,12
2022-07-31T03:18:27.347Z,11.9
2022-07-31T03:23:27.370Z,12.1
2022-07-31T03:28:30.379Z,12.1
2022-07-31T03:33:27.284Z,12.3
2022-07-31T03:38:38.419Z,12.4
2022-07-31T03:43:27.271Z,12.4
2022-07-31T03:48:27.340Z,12.5
2022-07-31T03:53:27.290Z,12.5
2022-07-31T03:58:27.320Z,12.2
2022-07-31T04:03:27.382Z,12.1
2022-07-31T04:08:27.357Z,12
2022-07-31T04:13:27.303Z,12
2022-07-31T04:18:27.324Z,12
2022-07-31T04:23:32.205Z,12.1
2022-07-31T04:28:27.357Z,12.1
2022-07-31T04:33:27.316Z,12.3
2022-07-31T04:38:27.345Z,12.4
2022-07-31T04:43:27.371Z,12.6
2022-07-31T04:48:27.438Z,12.5
2022-07-31T04:53:27.344Z,12.5
2022-07-31T04:58:27.367Z,12.7
2022-07-31T05:03:27.353Z,12.9
2022-07-31T05:08:27.356Z,13.3
2022-07-31T05:13:27.313Z,13.6
2022-07-31T05:18:27.336Z,14.1
2022-07-31T05:23:27.248Z,14.6
2022-07-31T05:28:29.868Z,14.8
2022-07-31T05:33:27.366Z,14.8
2022-07-31T05:38:27.375Z,14.8
2022-07-31T05:43:27.330Z,14.9
2022-07-31T05:48:27.306Z,15
2022-07-31T05:53:29.210Z,15.1
2022-07-31T05:58:27.376Z,15.3
2022-07-31T06:03:27.306Z,15.6
2022-07-31T06:08:27.426Z,15.9
2022-07-31T06:13:27.350Z,16.1
2022-07-31T06:18:27.366Z,16.3
2022-07-31T06:23:29.595Z,16.6
2022-07-31T06:28:29.698Z,17
2022-07-31T06:33:36.969Z,17.3
2022-07-31T06:38:27.362Z,17.5
2022-07-31T06:43:27.340Z,17.8
2022-07-31T06:48:27.415Z,18
2022-07-31T06:53:27.381Z,18
2022-07-31T06:58:27.362Z,18
2022-07-31T07:03:27.450Z,18.3
2022-07-31T07:08:27.426Z,18.4
2022-07-31T07:13:45.450Z,18.7
2022-07-31T07:18:27.365Z,19.1
2022-07-31T07:23:27.502Z,18.9
2022-07-31T07:28:30.295Z,18.9
2022-07-31T07:33:40.313Z,19.7
2022-07-31T07:38:27.406Z,20.2
2022-07-31T07:43:27.404Z,20.8
2022-07-31T07:48:27.536Z,20.3
2022-07-31T07:53:27.514Z,20.3
2022-07-31T07:58:27.387Z,20.2
2022-07-31T08:03:47.797Z,20.2
2022-07-31T08:08:27.372Z,20.3
2022-07-31T08:13:27.424Z,20.4
2022-07-31T08:18:28.512Z,20.7
2022-07-31T08:23:27.379Z,21.1
2022-07-31T08:28:27.488Z,21.9
2022-07-31T08:33:27.408Z,22.6
2022-07-31T08:38:27.483Z,22.9
2022-07-31T08:44:01.153Z,23.2
2022-07-31T08:48:27.457Z,22.9
2022-07-31T08:53:27.424Z,22.9
2022-07-31T08:58:27.477Z,23.1
2022-07-31T09:03:27.448Z,23.4
2022-07-31T09:08:27.446Z,23.4
2022-07-31T09:13:27.526Z,23.7
2022-07-31T09:18:27.433Z,23.8
2022-07-31T09:23:27.451Z,24.1
2022-07-31T09:28:28.841Z,24.5
2022-07-31T09:33:27.400Z,24.9
2022-07-31T09:38:27.392Z,25.4
2022-07-31T09:43:31.549Z,25.4
2022-07-31T09:48:28.714Z,25.9
2022-07-31T09:53:27.424Z,26.3
2022-07-31T09:58:27.492Z,26.2
2022-07-31T10:03:27.528Z,26.8
2022-07-31T10:08:27.441Z,27.8
2022-07-31T10:13:27.414Z,27
2022-07-31T10:18:35.983Z,28.1
2022-07-31T10:23:27.438Z,28.8
2022-07-31T10:28:27.450Z,29.9
2022-07-31T10:33:43.395Z,30.1
2022-07-31T10:38:27.448Z,29.9
2022-07-31T10:43:27.552Z,27.6
2022-07-31T10:48:27.521Z,26.9
2022-07-31T10:53:41.421Z,27.2
2022-07-31T10:58:27.617Z,27.7
2022-07-31T11:03:27.522Z,28.7
2022-07-31T11:08:27.601Z,29.1
2022-07-31T11:13:33.839Z,28.4
2022-07-31T11:18:31.192Z,28.4
2022-07-31T11:23:27.478Z,27.9
2022-07-31T11:28:27.526Z,27.6
2022-07-31T11:33:27.470Z,27.9
2022-07-31T11:38:27.445Z,27.8
2022-07-31T11:43:27.529Z,27.9
2022-07-31T11:48:28.003Z,27.6
2022-07-31T11:53:27.521Z,27.7
2022-07-31T11:58:27.538Z,28.7
2022-07-31T12:03:27.485Z,32.3
2022-07-31T12:13:27.527Z,30.6
2022-07-31T12:18:27.491Z,29.9
2022-07-31T12:23:38.813Z,29.9
2022-07-31T12:28:27.608Z,31.8
2022-07-31T12:33:27.501Z,33.6
2022-07-31T12:38:41.176Z,32.9
2022-07-31T12:43:27.654Z,30.6
2022-07-31T12:48:27.555Z,31.4
2022-07-31T12:53:27.812Z,29.6
2022-07-31T12:58:27.522Z,32.9
2022-07-31T13:03:28.550Z,31.1
2022-07-31T13:08:27.579Z,30.5
2022-07-31T13:13:27.560Z,30.6
2022-07-31T13:18:27.575Z,31.2
2022-07-31T13:23:27.577Z,32.2
2022-07-31T13:28:27.569Z,30.6
2022-07-31T13:33:27.509Z,32.3
2022-07-31T13:38:27.517Z,34.1
2022-07-31T13:43:27.561Z,31.7
2022-07-31T13:48:27.538Z,31.4
2022-07-31T13:53:27.515Z,31.6
2022-07-31T13:58:27.630Z,30.1
2022-07-31T14:03:27.591Z,30.6
2022-07-31T14:08:30.382Z,31.2
2022-07-31T14:13:27.505Z,29.2
2022-07-31T14:18:28.997Z,29.4
2022-07-31T14:23:34.303Z,29.1
2022-07-31T14:28:27.560Z,28.9
2022-07-31T14:33:28.551Z,28.4
2022-07-31T14:38:27.851Z,28.4
2022-07-31T14:43:27.553Z,28.1
2022-07-31T14:48:27.630Z,27.6
2022-07-31T14:53:27.561Z,27.4
2022-07-31T14:58:29.134Z,27.5
2022-07-31T15:03:27.642Z,27.5
2022-07-31T15:08:27.547Z,27.2
2022-07-31T15:13:27.568Z,27.1
2022-07-31T15:18:27.664Z,27.3
2022-07-31T15:23:33.641Z,27.4
2022-07-31T15:28:27.594Z,28
2022-07-31T15:33:27.713Z,28.3
2022-07-31T15:38:27.583Z,28.3
2022-07-31T15:48:27.666Z,28.3
2022-07-31T15:53:30.070Z,28.4
2022-07-31T15:58:27.747Z,28.3
2022-07-31T16:03:29.901Z,28.7
2022-07-31T16:08:34.636Z,28.6
2022-07-31T16:13:27.614Z,28.6
2022-07-31T16:18:27.648Z,28.6
2022-07-31T16:23:27.567Z,28.3
2022-07-31T16:28:27.604Z,28.2
2022-07-31T16:33:27.599Z,28
2022-07-31T16:38:27.639Z,27.7
2022-07-31T16:43:48.865Z,28.1
2022-07-31T16:48:27.671Z,28.6
2022-07-31T16:54:10.133Z,27.9
2022-07-31T16:58:27.586Z,27.9
2022-07-31T17:03:58.374Z,27.8
2022-07-31T17:08:27.630Z,27.7
2022-07-31T17:13:27.633Z,27.7
2022-07-31T17:18:27.646Z,27.4
2022-07-31T17:23:43.770Z,27.3
2022-07-31T17:28:27.721Z,27.1
2022-07-31T17:33:49.733Z,27
2022-07-31T17:38:27.734Z,27
2022-07-31T17:43:27.900Z,26.9
2022-07-31T17:48:27.649Z,26.9
2022-07-31T17:53:31.073Z,26.7
2022-07-31T17:58:27.657Z,26.7
2022-07-31T18:03:27.612Z,26.7
2022-07-31T18:08:27.647Z,26.6
2022-07-31T18:13:28.634Z,26.4
2022-07-31T18:18:27.873Z,26.4
2022-07-31T18:23:27.913Z,26.1
2022-07-31T18:28:27.739Z,25.7
2022-07-31T18:38:27.666Z,22.9
2022-07-31T18:43:30.943Z,22.7
2022-07-31T18:48:27.637Z,22.5
2022-07-31T18:53:27.784Z,22.4
2022-07-31T18:58:27.648Z,22.5
2022-07-31T19:03:27.610Z,22.5
2022-07-31T19:08:27.700Z,22.6
2022-07-31T19:18:29.044Z,22.6
2022-07-31T19:23:29.146Z,22.6
2022-07-31T19:28:27.932Z,22.5
2022-07-31T19:33:27.808Z,22.4
2022-07-31T19:38:27.723Z,22.4
2022-07-31T19:43:27.735Z,22.6
2022-07-31T19:48:27.806Z,22.5
2022-07-31T19:53:27.720Z,22.5
2022-07-31T19:58:27.809Z,22.5
2022-07-31T20:03:27.775Z,22.6
2022-07-31T20:08:28.090Z,22.6
2022-07-31T20:13:27.787Z,22.6
2022-07-31T20:18:28.706Z,22.6
2022-07-31T20:23:27.780Z,22.6
2022-07-31T20:28:28.026Z,22.6
2022-07-31T20:33:28.869Z,22.5
2022-07-31T20:38:28.023Z,22.5
2022-07-31T20:43:27.798Z,22.6
2022-07-31T20:53:27.887Z,22.3
2022-07-31T20:58:27.710Z,22.3
2022-07-31T21:03:27.894Z,22.1
2022-07-31T21:08:29.265Z,22.1
2022-07-31T21:13:27.766Z,22.1
2022-07-31T21:18:30.437Z,22.1
2022-07-31T21:23:27.725Z,22
2022-07-31T21:28:27.793Z,22
2022-07-31T21:33:31.656Z,22.1
2022-07-31T21:38:28.749Z,22.2
2022-07-31T21:43:27.846Z,22.2
2022-07-31T21:48:27.843Z,22.4
2022-07-31T21:53:27.748Z,22.5
2022-07-31T21:58:28.154Z,22.4
2022-07-31T22:03:27.933Z,22.3
2022-07-31T22:08:28.490Z,22.2
2022-07-31T22:13:27.849Z,22.1
2022-07-31T22:18:34.345Z,22.1
2022-07-31T22:23:34.336Z,22.1
2022-07-31T22:28:34.181Z,22
2022-07-31T22:33:34.153Z,22
2022-07-31T22:38:34.193Z,22.1
2022-07-31T22:44:05.653Z,22.3
2022-07-31T22:48:34.039Z,22.2
2022-07-31T22:53:34.208Z,22.1
2022-07-31T22:58:34.044Z,22.1
2022-07-31T23:03:34.263Z,22
2022-07-31T23:08:35.196Z,21.9
2022-07-31T23:13:34.243Z,21.8
2022-07-31T23:18:33.985Z,21.8
2022-07-31T23:23:34.243Z,21.8
2022-07-31T23:28:34.087Z,21.6
2022-07-31T23:33:35.949Z,21.4
2022-07-31T23:38:34.083Z,21.1
2022-07-31T23:43:34.602Z,20.8
2022-07-31T23:53:34.063Z,20.1
2022-07-31T23:58:34.113Z,19.9
